Time;durP1;ratioP1;P1;durP2;ratioP2;P2;SDS_P1;SDS_P2;PMS_P1;PMS_P2;Temp;Humidity;BMP_temperature;BMP_pressure;BME280_temperature;BME280_humidity;BME280_pressure;Samples;Min_cycle;Max_cycle;Signal;HPM_P1;HPM_P2
2022/09/06 00:01:32;;;;;;;4.43;4.03;;;;;;;18.20;100.00;100241.81;4970217;28;20307;-76
2022/09/06 00:03:58;;;;;;;4.50;4.10;;;;;;;18.19;100.00;100233.09;4971732;28;20884;-80
2022/09/06 00:06:23;;;;;;;4.40;4.00;;;;;;;18.21;100.00;100249.63;4966614;28;20224;-77
2022/09/06 00:08:49;;;;;;;5.20;4.03;;;;;;;18.21;100.00;100238.25;4964500;28;20197;-78
2022/09/06 00:11:15;;;;;;;3.90;3.53;;;;;;;18.21;100.00;100227.78;4968088;28;20280;-78
2022/09/06 00:13:41;;;;;;;4.47;3.80;;;;;;;18.21;100.00;100233.03;4967330;28;20194;-79
2022/09/06 00:16:09;;;;;;;3.93;3.53;;;;;;;18.19;100.00;100233.09;4961240;28;20212;-77
2022/09/06 00:18:35;;;;;;;4.20;3.80;;;;;;;18.19;100.00;100227.00;4969095;28;20207;-78
2022/09/06 00:21:02;;;;;;;3.63;3.33;;;;;;;18.17;100.00;100228.81;4964478;28;20573;-77
2022/09/06 00:23:28;;;;;;;3.83;3.53;;;;;;;18.17;100.00;100229.69;4961834;28;20186;-76
2022/09/06 00:26:02;;;;;;;3.97;3.67;;;;;;;18.18;100.00;100227.91;4964114;28;20286;-77
2022/09/06 00:28:28;;;;;;;3.83;3.60;;;;;;;18.17;100.00;100229.69;4988313;28;20199;-79
2022/09/06 00:30:53;;;;;;;4.53;4.13;;;;;;;18.18;100.00;100241.88;4969425;28;20309;-76
2022/09/06 00:33:18;;;;;;;4.33;3.90;;;;;;;18.18;100.00;100226.16;4966933;28;20537;-77
2022/09/06 00:35:46;;;;;;;3.63;3.33;;;;;;;18.18;100.00;100228.78;4960606;28;20215;-79
2022/09/06 00:38:12;;;;;;;3.60;3.40;;;;;;;18.17;100.00;100229.69;4975399;28;20202;-78
2022/09/06 00:40:37;;;;;;;4.50;3.77;;;;;;;18.19;100.00;100224.38;4967699;28;20616;-79
2022/09/06 00:43:03;;;;;;;4.63;3.90;;;;;;;18.22;100.00;100222.50;4963136;28;20222;-78
2022/09/06 00:45:29;;;;;;;3.97;3.67;;;;;;;18.21;100.00;100231.28;4964317;28;20266;-78
2022/09/06 00:47:56;;;;;;;4.80;3.97;;;;;;;18.24;100.00;100225.03;4967550;28;20274;-76
2022/09/06 00:50:22;;;;;;;3.90;3.60;;;;;;;18.25;100.00;100221.50;4964764;28;20192;-76
2022/09/06 00:52:51;;;;;;;4.37;3.63;;;;;;;18.27;100.00;100220.53;4965604;28;20201;-76
2022/09/06 00:55:18;;;;;;;5.83;4.00;;;;;;;18.31;100.00;100231.72;4964627;28;20183;-77
2022/09/06 00:57:45;;;;;;;8.90;4.10;;;;;;;18.32;100.00;100240.44;4963170;28;20224;-81
2022/09/06 01:00:11;;;;;;;7.53;3.90;;;;;;;18.32;100.00;100264.84;4965811;28;20201;-76
2022/09/06 01:02:37;;;;;;;4.87;3.90;;;;;;;18.32;100.00;100300.69;4968727;28;20211;-75
2022/09/06 01:05:03;;;;;;;5.00;4.20;;;;;;;18.29;100.00;100393.38;4965335;28;20605;-78
2022/09/06 01:07:41;;;;;;;5.40;4.07;;;;;;;18.31;100.00;100403.78;4966450;28;20210;-78
2022/09/06 01:10:22;;;;;;;4.30;4.00;;;;;;;18.31;100.00;100404.63;4963934;28;20190;-76
2022/09/06 01:13:01;;;;;;;6.90;4.80;;;;;;;18.40;100.00;100409.50;4966193;28;20194;-76
2022/09/06 01:15:46;;;;;;;5.03;4.63;;;;;;;18.54;100.00;100431.69;4962402;28;20244;-76
2022/09/06 01:18:30;;;;;;;5.57;4.37;;;;;;;18.70;100.00;100429.28;4964856;28;20198;-74
2022/09/06 01:21:04;;;;;;;5.73;4.50;;;;;;;18.78;100.00;100414.13;4963307;28;20212;-75
2022/09/06 01:23:53;;;;;;;5.60;4.57;;;;;;;18.88;100.00;100436.41;4965549;28;20189;-79
2022/09/06 01:26:42;;;;;;;7.63;4.97;;;;;;;18.88;100.00;100446.06;4956995;28;20218;-77
2022/09/06 01:29:32;;;;;;;5.03;4.63;;;;;;;18.87;100.00;100441.72;4977573;28;20193;-74
2022/09/06 01:32:11;;;;;;;6.83;5.00;;;;;;;18.88;100.00;100422.47;4963441;28;20250;-76
2022/09/06 01:34:49;;;;;;;6.83;5.03;;;;;;;18.92;100.00;100383.84;4963899;28;20682;-77
2022/09/06 01:37:19;;;;;;;12.43;8.13;;;;;;;18.83;100.00;100379.84;4977306;28;20506;-76
2022/09/06 01:39:44;;;;;;;11.87;8.00;;;;;;;18.63;100.00;100402.47;4966265;28;20191;-75
2022/09/06 01:42:18;;;;;;;9.40;8.60;;;;;;;18.50;100.00;100412.63;4963068;28;20227;-77
2022/09/06 01:44:50;;;;;;;11.70;10.50;;;;;;;18.40;100.00;100426.97;4962254;28;20782;-76
2022/09/06 01:47:22;;;;;;;14.10;11.67;;;;;;;18.35;100.00;100402.75;4963955;28;20220;-76
2022/09/06 01:49:51;;;;;;;16.17;14.43;;;;;;;18.19;100.00;100394.63;4965978;28;20204;-75
2022/09/06 01:52:32;;;;;;;20.07;15.53;;;;;;;18.04;100.00;100391.69;4965844;28;20213;-75
2022/09/06 01:55:36;;;;;;;19.07;17.27;;;;;;;18.00;100.00;100400.56;4957741;28;20206;-76
2022/09/06 01:58:40;;;;;;;21.13;18.93;;;;;;;18.04;100.00;100402.16;4962302;28;20617;-78
2022/09/06 02:01:31;;;;;;;22.03;19.80;;;;;;;18.04;100.00;100403.94;4965984;28;20213;-79
2022/09/06 02:04:19;;;;;;;23.83;21.33;;;;;;;18.02;100.00;100390.88;4964105;28;20207;-76
2022/09/06 02:06:49;;;;;;;24.77;22.13;;;;;;;17.97;100.00;100388.47;4965149;28;20245;-75
2022/09/06 02:09:20;;;;;;;25.93;23.17;;;;;;;18.02;100.00;100395.28;4976992;28;20824;-77
2022/09/06 02:11:58;;;;;;;26.30;23.60;;;;;;;17.98;100.00;100389.31;4963635;28;20195;-75
2022/09/06 02:14:32;;;;;;;26.60;23.90;;;;;;;18.00;100.00;100382.25;4956156;28;20188;-75
2022/09/06 02:16:59;;;;;;;25.73;23.27;;;;;;;18.01;100.00;100385.72;4964604;28;20230;-76
2022/09/06 02:19:42;;;;;;;25.93;23.23;;;;;;;18.01;100.00;100386.56;4965170;28;20222;-77
2022/09/06 02:22:11;;;;;;;27.63;24.73;;;;;;;17.98;100.00;100377.06;4961666;28;20232;-75
2022/09/06 02:24:39;;;;;;;26.97;24.20;;;;;;;17.97;100.00;100364.03;4967756;28;20667;-77
2022/09/06 02:27:05;;;;;;;26.57;23.80;;;;;;;17.97;100.00;100374.50;4965585;28;20206;-75
2022/09/06 02:29:32;;;;;;;27.53;24.63;;;;;;;17.94;100.00;100359.72;4963904;28;20237;-78
2022/09/06 02:32:03;;;;;;;26.83;24.03;;;;;;;17.95;100.00;100358.81;4964278;28;20699;-77
2022/09/06 02:34:29;;;;;;;25.60;23.10;;;;;;;17.95;100.00;100364.06;4962698;28;20198;-75
2022/09/06 02:36:55;;;;;;;27.70;24.80;;;;;;;17.93;100.00;100365.88;4966744;28;20213;-76
2022/09/06 02:39:20;;;;;;;27.97;25.17;;;;;;;17.90;100.00;100367.78;4963597;28;20198;-76
2022/09/06 02:41:47;;;;;;;29.47;26.33;;;;;;;17.83;100.00;100382.84;4966135;28;20294;-76
2022/09/06 02:44:13;;;;;;;29.07;26.07;;;;;;;17.75;100.00;100370.06;4958986;28;20566;-76
2022/09/06 02:46:38;;;;;;;29.00;26.10;;;;;;;17.72;100.00;100364.09;4962260;28;20204;-76
2022/09/06 02:49:04;;;;;;;27.77;24.97;;;;;;;17.66;100.00;100359.94;4962163;28;20198;-76
2022/09/06 02:51:29;;;;;;;26.20;23.60;;;;;;;17.64;100.00;100361.75;4961984;28;20567;-76
2022/09/06 02:53:55;;;;;;;26.97;24.10;;;;;;;17.62;100.00;100353.94;4963668;28;20198;-77
2022/09/06 02:56:21;;;;;;;26.53;23.93;;;;;;;17.64;100.00;100351.28;4963557;28;20260;-77
2022/09/06 02:58:47;;;;;;;26.23;23.53;;;;;;;17.65;100.00;100353.00;4963705;28;20557;-76
2022/09/06 03:01:12;;;;;;;27.37;24.63;;;;;;;17.67;100.00;100359.88;4967832;28;20212;-76
2022/09/06 03:03:37;;;;;;;26.23;23.63;;;;;;;17.64;100.00;100367.00;4962025;28;20287;-76
2022/09/06 03:06:03;;;;;;;27.97;25.23;;;;;;;17.60;100.00;100370.63;4961831;28;20234;-77
2022/09/06 03:08:32;;;;;;;27.23;24.33;;;;;;;17.52;100.00;100368.28;4963886;28;20240;-76
2022/09/06 03:10:59;;;;;;;27.23;24.03;;;;;;;17.47;100.00;100357.16;4962569;28;20191;-77
2022/09/06 03:13:25;;;;;;;25.70;23.17;;;;;;;17.44;100.00;100344.19;4960755;28;20246;-76
2022/09/06 03:15:52;;;;;;;24.47;22.00;;;;;;;17.43;100.00;100342.47;4961596;28;20191;-76
2022/09/06 03:18:17;;;;;;;23.63;21.33;;;;;;;17.44;100.00;100346.81;4964252;28;20185;-76
2022/09/06 03:20:43;;;;;;;23.13;21.00;;;;;;;17.50;100.00;100346.56;4964884;28;20197;-75
2022/09/06 03:23:08;;;;;;;22.97;20.87;;;;;;;17.56;100.00;100345.47;4963358;28;20726;-76
2022/09/06 03:25:33;;;;;;;23.53;21.23;;;;;;;17.60;100.00;100337.47;4964100;28;20197;-75
2022/09/06 03:27:59;;;;;;;23.07;20.77;;;;;;;17.64;100.00;100332.97;4964975;28;20253;-77
2022/09/06 03:30:24;;;;;;;23.13;20.73;;;;;;;17.68;100.00;100329.34;4964625;28;20577;-77
2022/09/06 03:32:50;;;;;;;21.47;19.37;;;;;;;17.71;100.00;100331.81;4964604;28;20285;-76
2022/09/06 03:35:15;;;;;;;23.73;21.50;;;;;;;17.67;100.00;100331.09;4963184;28;20626;-79
2022/09/06 03:37:40;;;;;;;23.47;21.23;;;;;;;17.58;100.00;100330.56;4964696;28;20256;-76
2022/09/06 03:40:06;;;;;;;22.00;19.83;;;;;;;17.54;100.00;100344.72;4963132;28;20205;-76
2022/09/06 03:42:32;;;;;;;20.10;18.23;;;;;;;17.53;100.00;100343.84;4963965;28;20305;-76
2022/09/06 03:44:57;;;;;;;21.07;18.97;;;;;;;17.52;100.00;100342.13;4953703;28;20602;-79
2022/09/06 03:47:23;;;;;;;20.57;18.63;;;;;;;17.47;100.00;100344.91;4953684;28;20223;-76
2022/09/06 03:49:49;;;;;;;20.10;18.30;;;;;;;17.42;100.00;100348.63;4962073;28;20191;-76
2022/09/06 03:52:16;;;;;;;20.63;18.63;;;;;;;17.37;100.00;100344.41;4959304;28;20667;-77
2022/09/06 03:54:44;;;;;;;19.87;17.97;;;;;;;17.36;100.00;100337.47;4960822;28;20281;-78
2022/09/06 03:57:09;;;;;;;19.63;17.83;;;;;;;17.35;100.00;100333.13;4968024;28;20221;-76
2022/09/06 03:59:35;;;;;;;19.03;17.17;;;;;;;17.33;100.00;100331.50;4968304;28;20191;-78
2022/09/06 04:02:00;;;;;;;20.13;18.23;;;;;;;17.28;100.00;100321.22;4964382;28;20209;-76
2022/09/06 04:04:26;;;;;;;19.47;17.60;;;;;;;17.25;100.00;100338.75;4963988;28;21060;-77
2022/09/06 04:06:51;;;;;;;20.33;18.33;;;;;;;17.22;100.00;100329.25;4963855;28;20209;-77
2022/09/06 04:09:17;;;;;;;21.10;18.90;;;;;;;17.23;100.00;100335.38;4960310;28;20185;-76
2022/09/06 04:11:42;;;;;;;20.50;18.60;;;;;;;17.23;100.00;100333.59;4964094;28;20551;-76
2022/09/06 04:14:08;;;;;;;20.50;18.63;;;;;;;17.22;100.00;100337.09;4955438;28;20537;-76
2022/09/06 04:16:33;;;;;;;19.93;18.03;;;;;;;17.20;100.00;100328.47;4960098;28;20206;-75
2022/09/06 04:19:00;;;;;;;20.00;18.27;;;;;;;17.18;100.00;100331.16;4967282;28;20216;-75
2022/09/06 04:21:26;;;;;;;19.33;17.53;;;;;;;17.18;100.00;100341.59;4963054;28;20217;-79
2022/09/06 04:23:52;;;;;;;21.47;19.57;;;;;;;17.14;100.00;100337.38;4966297;28;20328;-76
2022/09/06 04:26:17;;;;;;;21.33;19.27;;;;;;;17.12;100.00;100343.59;4969696;28;20217;-76
2022/09/06 04:28:43;;;;;;;21.23;19.23;;;;;;;17.09;100.00;100334.09;4968084;28;20190;-77
2022/09/06 04:31:08;;;;;;;22.03;19.93;;;;;;;17.00;100.00;100335.28;4969054;28;20700;-77
2022/09/06 04:33:35;;;;;;;20.93;18.93;;;;;;;16.90;100.00;100326.84;4962321;28;20808;-75
2022/09/06 04:36:03;;;;;;;20.53;18.53;;;;;;;16.87;100.00;100331.31;4967589;28;20588;-79
2022/09/06 04:38:30;;;;;;;20.60;18.50;;;;;;;16.84;100.00;100327.06;4967284;28;20190;-75
2022/09/06 04:40:55;;;;;;;21.50;19.43;;;;;;;16.85;100.00;100333.16;4969279;28;20288;-76
2022/09/06 04:43:21;;;;;;;20.13;18.37;;;;;;;16.84;100.00;100324.44;4965665;28;20276;-76
2022/09/06 04:45:47;;;;;;;20.53;18.73;;;;;;;16.86;100.00;100329.63;4968948;28;20186;-77
2022/09/06 04:48:13;;;;;;;20.90;18.97;;;;;;;16.87;100.00;100324.34;4968857;28;20276;-76
2022/09/06 04:50:38;;;;;;;20.97;19.03;;;;;;;16.89;100.00;100324.28;4970070;28;20182;-76
2022/09/06 04:53:04;;;;;;;19.30;17.47;;;;;;;16.90;100.00;100323.38;4969351;28;20511;-77
2022/09/06 04:55:30;;;;;;;20.77;18.87;;;;;;;16.89;100.00;100333.00;4964964;28;20209;-80
2022/09/06 04:57:59;;;;;;;21.00;18.97;;;;;;;16.91;100.00;100322.47;4971227;28;20452;-77
2022/09/06 05:00:26;;;;;;;21.17;19.27;;;;;;;16.87;100.00;100323.47;4968001;28;20345;-79
2022/09/06 05:02:52;;;;;;;20.70;18.80;;;;;;;16.86;100.00;100327.88;4966896;28;20217;-77
2022/09/06 05:05:17;;;;;;;21.13;19.13;;;;;;;16.87;100.00;100324.34;4965692;28;20190;-77
2022/09/06 05:07:42;;;;;;;20.33;18.53;;;;;;;16.90;100.00;100331.22;4968564;28;20209;-75
2022/09/06 05:10:08;;;;;;;20.23;18.33;;;;;;;16.91;100.00;100325.09;4971666;28;20242;-76
2022/09/06 05:12:33;;;;;;;19.43;17.67;;;;;;;16.91;100.00;100327.69;4974112;28;20179;-75
2022/09/06 05:14:59;;;;;;;18.43;16.87;;;;;;;16.91;100.00;100328.56;4965786;28;20578;-78
2022/09/06 05:17:24;;;;;;;19.07;17.43;;;;;;;16.91;100.00;100320.72;4968307;28;20214;-76
2022/09/06 05:19:50;;;;;;;18.97;17.17;;;;;;;16.94;100.00;100324.16;4971604;28;20201;-78
2022/09/06 05:22:15;;;;;;;18.90;17.23;;;;;;;16.97;100.00;100326.66;4967406;28;20277;-77
2022/09/06 05:24:41;;;;;;;19.57;17.67;;;;;;;17.00;100.00;100330.03;4962728;28;20197;-77
2022/09/06 05:27:06;;;;;;;17.90;16.37;;;;;;;17.04;100.00;100331.63;4966817;28;20714;-76
2022/09/06 05:29:32;;;;;;;18.37;16.70;;;;;;;17.09;100.00;100328.88;4976984;28;20205;-77
2022/09/06 05:31:58;;;;;;;18.53;16.83;;;;;;;17.19;100.00;100337.22;4968619;28;20193;-77
2022/09/06 05:34:23;;;;;;;19.73;18.03;;;;;;;17.30;100.00;100334.22;4966909;28;20726;-75
2022/09/06 05:36:49;;;;;;;17.63;16.10;;;;;;;17.36;100.00;100336.63;4960543;28;20301;-79
2022/09/06 05:39:14;;;;;;;17.67;16.17;;;;;;;17.37;100.00;100341.78;4961852;28;20276;-79
2022/09/06 05:41:40;;;;;;;18.03;16.43;;;;;;;17.39;100.00;100349.59;4961867;28;20241;-77
2022/09/06 05:44:05;;;;;;;17.80;16.20;;;;;;;17.39;100.00;100353.97;4960602;28;20190;-78
2022/09/06 05:46:30;;;;;;;17.13;15.53;;;;;;;17.40;100.00;100358.28;4961790;28;20283;-76
2022/09/06 05:49:03;;;;;;;16.33;14.93;;;;;;;17.49;100.00;100360.56;4959472;28;20600;-77
2022/09/06 05:51:30;;;;;;;15.97;14.57;;;;;;;17.50;100.00;100364.88;4963075;28;20708;-76
2022/09/06 05:53:55;;;;;;;15.87;14.53;;;;;;;17.51;100.00;100363.97;4961169;28;20194;-76
2022/09/06 05:56:21;;;;;;;16.57;15.17;;;;;;;17.55;100.00;100370.81;4965683;28;20206;-76
2022/09/06 05:58:46;;;;;;;14.80;13.43;;;;;;;17.58;100.00;100375.06;4968711;28;20194;-77
2022/09/06 06:01:25;;;;;;;15.77;14.37;;;;;;;17.65;100.00;100385.25;4975262;28;20179;-76
2022/09/06 06:03:59;;;;;;;15.27;14.07;;;;;;;17.74;100.00;100378.81;4979722;28;20247;-76
2022/09/06 06:06:27;;;;;;;14.90;13.60;;;;;;;17.84;100.00;100379.34;4976137;28;20214;-77
2022/09/06 06:08:53;;;;;;;16.40;14.90;;;;;;;17.94;100.00;100390.31;4977529;28;20232;-77
2022/09/06 06:11:19;;;;;;;14.87;13.57;;;;;;;18.09;100.00;100383.66;4982323;28;20558;-76
2022/09/06 06:13:44;;;;;;;15.83;14.37;;;;;;;18.30;100.00;100378.50;4976006;28;20244;-75
2022/09/06 06:16:12;;;;;;;19.10;17.27;;;;;;;18.46;100.00;100381.34;4967983;28;20619;-79
2022/09/06 06:18:38;;;;;;;21.37;19.27;;;;;;;18.51;100.00;100392.50;4968378;28;20661;-78
2022/09/06 06:21:23;;;;;;;20.73;18.83;;;;;;;18.62;100.00;100382.41;4979733;28;20181;-77
2022/09/06 06:23:53;;;;;;;20.37;18.57;;;;;;;18.78;100.00;100385.28;4973247;28;20665;-77
2022/09/06 06:26:20;;;;;;;18.43;16.73;;;;;;;19.02;100.00;100383.41;4949001;28;20222;-78
2022/09/06 06:28:46;;;;;;;17.93;16.43;;;;;;;19.19;100.00;100389.72;4968280;28;20201;-76
2022/09/06 06:31:11;;;;;;;17.93;16.43;;;;;;;19.36;100.00;100391.59;4975482;28;20695;-78
2022/09/06 06:33:38;;;;;;;17.53;15.97;;;;;;;19.49;100.00;100389.28;4965639;28;20272;-78
2022/09/06 06:36:22;;;;;;;16.03;14.73;;;;;;;19.59;100.00;100390.56;4970685;28;20210;-76
2022/09/06 06:38:48;;;;;;;16.50;15.10;;;;;;;19.76;100.00;100395.03;4964434;28;20192;-76
2022/09/06 06:41:17;;;;;;;15.77;14.47;;;;;;;19.99;100.00;100387.91;4980705;28;20561;-78
2022/09/06 06:43:42;;;;;;;15.67;14.37;;;;;;;20.27;100.00;100386.59;4965734;28;20593;-76
2022/09/06 06:46:08;;;;;;;15.23;13.93;;;;;;;20.48;100.00;100384.72;4964827;28;20243;-76
2022/09/06 06:48:35;;;;;;;14.70;13.43;;;;;;;20.58;100.00;100387.75;4966366;28;20189;-79
2022/09/06 06:51:00;;;;;;;14.57;13.27;;;;;;;20.39;100.00;100391.28;4976772;28;20475;-77
2022/09/06 06:53:26;;;;;;;13.10;12.10;;;;;;;20.25;100.00;100384.06;4974552;28;20197;-76
2022/09/06 06:55:51;;;;;;;12.80;11.70;;;;;;;20.17;100.00;100396.69;4973635;28;20184;-76
2022/09/06 06:58:17;;;;;;;13.83;12.73;;;;;;;20.18;100.00;100387.91;4972079;28;20217;-77
2022/09/06 07:00:43;;;;;;;13.97;12.87;;;;;;;20.24;100.00;100389.38;4976739;28;20177;-79
2022/09/06 07:03:10;;;;;;;13.63;12.57;;;;;;;20.37;100.00;100379.13;4973307;28;20223;-76
2022/09/06 07:05:35;;;;;;;14.83;13.53;;;;;;;20.59;100.00;100373.69;4974873;28;20213;-77
2022/09/06 07:08:01;;;;;;;15.43;14.23;;;;;;;20.90;100.00;100361.66;4967492;28;20300;-77
2022/09/06 07:10:26;;;;;;;15.33;14.13;;;;;;;21.24;100.00;100364.31;4974746;28;20185;-76
2022/09/06 07:12:52;;;;;;;16.20;14.97;;;;;;;21.83;100.00;100362.06;4981981;28;20208;-77
2022/09/06 07:15:17;;;;;;;15.20;13.93;;;;;;;22.37;100.00;100366.97;4973716;28;20570;-79
2022/09/06 07:17:43;;;;;;;13.70;12.60;;;;;;;22.77;100.00;100373.50;4981181;28;20231;-77
2022/09/06 07:20:09;;;;;;;12.10;11.10;;;;;;;22.92;100.00;100375.25;4967225;28;20303;-77
2022/09/06 07:22:35;;;;;;;12.43;11.43;;;;;;;22.80;100.00;100360.97;4969004;28;20214;-79
2022/09/06 07:25:01;;;;;;;12.50;11.60;;;;;;;22.68;100.00;100362.56;4973241;28;20275;-77
2022/09/06 07:27:26;;;;;;;12.87;11.77;;;;;;;22.65;100.00;100357.47;4972107;28;20312;-77
2022/09/06 07:29:52;;;;;;;11.83;10.83;;;;;;;22.64;100.00;100354.91;4976224;28;20279;-80
2022/09/06 07:32:17;;;;;;;11.57;10.73;;;;;;;22.63;100.00;100363.75;4967224;28;20232;-78
2022/09/06 07:34:43;;;;;;;11.27;10.27;;;;;;;22.72;100.00;100352.69;4976829;28;20661;-78
2022/09/06 07:37:08;;;;;;;11.20;10.10;;;;;;;22.74;100.00;100348.16;4974955;28;20247;-78
2022/09/06 07:39:35;;;;;;;10.80;9.83;;;;;;;22.88;100.00;100346.50;4966528;28;20190;-77
2022/09/06 07:42:01;;;;;;;10.80;10.00;;;;;;;22.92;100.00;100351.50;4962480;28;20213;-77
2022/09/06 07:44:28;;;;;;;10.30;9.43;;;;;;;22.99;100.00;100365.16;4968273;28;20291;-78
2022/09/06 07:46:53;;;;;;;9.50;8.80;;;;;;;23.09;100.00;100361.03;4964480;28;20206;-77
2022/09/06 07:49:19;;;;;;;9.40;8.70;;;;;;;23.21;100.00;100358.63;4966909;28;20198;-77
2022/09/06 07:51:44;;;;;;;8.43;7.73;;;;;;;23.36;100.00;100360.34;4969532;28;20228;-75
2022/09/06 07:54:10;;;;;;;8.30;7.63;;;;;;;23.47;100.00;100362.28;4974620;28;20685;-77
2022/09/06 07:56:35;;;;;;;8.60;7.90;;;;;;;23.58;100.00;100369.56;4977106;28;20665;-75
2022/09/06 07:59:01;;;;;;;8.10;7.40;;;;;;;23.60;100.00;100372.94;4976711;28;20268;-75
2022/09/06 08:01:28;;;;;;;8.30;7.63;;;;;;;23.54;100.00;100370.69;4983066;28;20292;-76
2022/09/06 08:04:04;;;;;;;8.17;7.57;;;;;;;23.42;100.00;100365.22;4969154;28;20674;-76
2022/09/06 08:06:32;;;;;;;8.23;7.63;;;;;;;23.34;100.00;100364.88;4973971;28;20220;-76
2022/09/06 08:08:58;;;;;;;8.27;7.63;;;;;;;23.23;100.00;100364.66;4976798;28;20181;-76
2022/09/06 08:11:27;;;;;;;8.73;8.03;;;;;;;23.17;100.00;100368.47;4984300;28;20239;-76
2022/09/06 08:13:54;;;;;;;8.47;7.67;;;;;;;23.12;100.00;100355.56;4978504;28;20684;-75
2022/09/06 08:16:20;;;;;;;8.70;7.90;;;;;;;23.06;100.00;100345.41;4967721;28;20690;-74
2022/09/06 08:18:59;;;;;;;9.37;8.63;;;;;;;22.98;100.00;100359.06;4978292;28;20624;-77
2022/09/06 08:21:28;;;;;;;8.90;8.20;;;;;;;22.99;100.00;100360.72;4972478;28;20248;-76
2022/09/06 08:23:59;;;;;;;9.57;8.77;;;;;;;23.02;100.00;100362.34;4971110;28;20182;-75
2022/09/06 08:26:25;;;;;;;9.80;9.00;;;;;;;23.05;100.00;100362.19;4979824;28;20239;-77
2022/09/06 08:29:04;;;;;;;9.20;8.47;;;;;;;23.06;100.00;100355.97;4972504;28;20435;-76
2022/09/06 08:31:31;;;;;;;9.47;8.77;;;;;;;23.10;100.00;100356.63;4979195;28;20182;-78
2022/09/06 08:33:58;;;;;;;9.33;8.57;;;;;;;23.10;100.00;100359.25;4978782;28;20545;-76
2022/09/06 08:36:29;;;;;;;8.83;8.13;;;;;;;23.17;100.00;100367.66;4968388;28;20229;-75
2022/09/06 08:38:55;;;;;;;9.10;8.40;;;;;;;23.18;100.00;100369.34;4967114;28;20254;-77
2022/09/06 08:41:50;;;;;;;9.03;8.33;;;;;;;23.08;100.00;100371.69;4966268;28;20685;-77
2022/09/06 08:44:23;;;;;;;8.67;7.97;;;;;;;23.08;100.00;100380.44;4971009;28;20661;-74
2022/09/06 08:47:12;;;;;;;9.20;8.50;;;;;;;23.05;100.00;100378.00;4969451;28;20214;-77
2022/09/06 08:49:44;;;;;;;9.40;8.60;;;;;;;23.16;100.00;100379.16;4968853;28;20555;-76
2022/09/06 08:52:45;;;;;;;10.73;9.73;;;;;;;23.23;100.00;100375.22;4967740;28;20498;-74
2022/09/06 08:55:22;;;;;;;10.97;9.97;;;;;;;23.29;100.00;100380.97;4893222;29;20206;-75
2022/09/06 08:58:09;;;;;;;10.43;9.53;;;;;;;23.40;100.00;100384.75;4961733;28;20293;-78
2022/09/06 09:00:37;;;;;;;9.90;9.10;;;;;;;23.44;100.00;100389.75;4971422;28;20658;-79
2022/09/06 09:03:05;;;;;;;9.93;8.97;;;;;;;23.46;100.00;100387.00;4962862;28;20630;-76
2022/09/06 09:05:33;;;;;;;9.37;8.67;;;;;;;23.46;100.00;100389.66;4968386;28;20204;-76
2022/09/06 09:08:24;;;;;;;9.43;8.63;;;;;;;23.46;100.00;100386.16;4970262;28;20212;-76
2022/09/06 09:10:53;;;;;;;9.03;8.33;;;;;;;23.56;100.00;100387.28;4965563;28;20226;-76
2022/09/06 09:13:31;;;;;;;9.77;9.07;;;;;;;23.59;100.00;100393.25;4967559;28;20276;-77
2022/09/06 09:15:56;;;;;;;9.13;8.43;;;;;;;23.67;100.00;100392.75;4967660;28;20194;-76
2022/09/06 09:18:25;;;;;;;8.93;8.33;;;;;;;23.80;100.00;100389.34;4969194;28;20212;-78
2022/09/06 09:20:51;;;;;;;9.87;8.97;;;;;;;23.86;100.00;100379.25;4970059;28;20718;-77
2022/09/06 09:23:17;;;;;;;8.67;7.90;;;;;;;24.00;100.00;100383.66;4970309;28;20312;-77
2022/09/06 09:25:45;;;;;;;8.43;7.73;;;;;;;24.09;100.00;100382.22;4966418;28;20186;-76
2022/09/06 09:28:16;;;;;;;8.47;7.77;;;;;;;24.26;100.00;100375.00;4969000;28;20197;-75
2022/09/06 09:30:48;;;;;;;8.03;7.40;;;;;;;24.40;100.00;100372.28;4967830;28;20190;-76
2022/09/06 09:33:40;;;;;;;7.70;7.10;;;;;;;24.70;100.00;100378.34;4968708;28;20196;-75
2022/09/06 09:36:10;;;;;;;7.43;6.90;;;;;;;24.89;100.00;100372.66;4959840;28;20225;-76
2022/09/06 09:38:43;;;;;;;7.17;6.57;;;;;;;25.08;100.00;100377.53;4974218;28;20196;-76
2022/09/06 09:41:10;;;;;;;6.90;6.40;;;;;;;25.26;100.00;100370.09;4970992;28;20193;-76
2022/09/06 09:43:38;;;;;;;6.40;5.90;;;;;;;25.48;100.00;100373.94;4969910;28;20293;-78
2022/09/06 09:46:12;;;;;;;5.83;5.43;;;;;;;25.71;100.00;100372.31;4969654;28;20215;-77
2022/09/06 09:48:40;;;;;;;6.33;5.53;;;;;;;25.91;100.00;100372.69;4977333;28;20210;-76
2022/09/06 09:51:18;;;;;;;6.73;6.13;;;;;;;26.08;100.00;100368.78;4970678;28;20197;-77
2022/09/06 09:53:58;;;;;;;6.67;6.10;;;;;;;26.23;100.00;100364.22;4971742;28;20181;-75
2022/09/06 09:56:36;;;;;;;7.67;6.40;;;;;;;26.30;100.00;100363.63;4974180;28;20677;-77
2022/09/06 09:59:06;;;;;;;6.30;5.77;;;;;;;26.36;100.00;100362.34;4970640;28;20232;-76
2022/09/06 10:01:32;;;;;;;6.10;5.50;;;;;;;26.42;100.00;100363.69;4972814;28;20201;-77
2022/09/06 10:04:10;;;;;;;6.07;5.57;;;;;;;26.49;100.00;100356.94;4976347;28;20709;-75
2022/09/06 10:06:36;;;;;;;5.33;4.93;;;;;;;26.60;100.00;100358.78;4972352;28;20227;-77
2022/09/06 10:09:19;;;;;;;6.40;4.90;;;;;;;26.73;100.00;100342.78;4967564;28;20186;-76
2022/09/06 10:11:56;;;;;;;6.13;5.33;;;;;;;26.85;100.00;100343.69;4967899;28;20678;-77
2022/09/06 10:14:30;;;;;;;6.10;5.40;;;;;;;26.93;100.00;100342.13;4967048;28;20605;-76
2022/09/06 10:16:57;;;;;;;7.40;5.30;;;;;;;26.97;100.00;100340.09;4972435;28;20728;-74
2022/09/06 10:19:37;;;;;;;5.97;5.00;;;;;;;26.95;100.00;100336.69;4968267;28;20193;-75
2022/09/06 10:22:52;;;;;;;5.30;4.80;;;;;;;26.90;100.00;100336.19;4971555;28;20205;-78
2022/09/06 10:25:35;;;;;;;4.73;4.43;;;;;;;26.84;100.00;100329.56;4945172;28;20260;-76
2022/09/06 10:28:27;;;;;;;4.67;4.27;;;;;;;26.75;100.00;100327.59;4968267;28;20201;-76
2022/09/06 10:31:06;;;;;;;5.03;4.60;;;;;;;26.63;100.00;100327.53;4966714;28;20190;-76
2022/09/06 10:34:05;;;;;;;5.37;4.83;;;;;;;26.65;100.00;100323.94;4970404;28;20197;-77
2022/09/06 10:36:35;;;;;;;5.03;4.53;;;;;;;26.72;100.00;100323.34;4990573;28;20217;-75
2022/09/06 10:39:33;;;;;;;4.33;3.93;;;;;;;26.81;100.00;100319.16;4971782;28;20509;-75
2022/09/06 10:42:19;;;;;;;4.80;4.30;;;;;;;26.89;100.00;100315.91;4974280;28;20209;-78
2022/09/06 10:45:24;;;;;;;6.33;4.57;;;;;;;26.96;100.00;100308.31;4971520;28;20579;-77
2022/09/06 10:48:07;;;;;;;4.33;3.93;;;;;;;27.04;100.00;100308.59;4968943;28;20611;-77
2022/09/06 10:50:51;;;;;;;4.77;3.97;;;;;;;27.12;100.00;100307.97;4963447;28;20186;-77
2022/09/06 10:53:37;;;;;;;4.87;4.33;;;;;;;27.19;100.00;100310.03;4961182;28;20189;-76
2022/09/06 10:56:37;;;;;;;4.07;3.67;;;;;;;27.24;100.00;100309.66;4963455;28;20263;-76
2022/09/06 10:59:06;;;;;;;5.43;4.33;;;;;;;27.29;100.00;100311.94;4944639;28;20283;-77
2022/09/06 11:01:40;;;;;;;4.73;4.17;;;;;;;27.20;100.00;100316.19;4972730;28;20214;-76
2022/09/06 11:04:10;;;;;;;5.33;3.80;;;;;;;26.97;100.00;100305.56;4970251;28;20564;-75
2022/09/06 11:06:43;;;;;;;4.93;3.53;;;;;;;26.97;100.00;100305.56;4957370;28;20205;-74
2022/09/06 11:09:27;;;;;;;4.80;4.00;;;;;;;27.13;100.00;100307.84;4975883;28;20233;-76
2022/09/06 11:11:56;;;;;;;3.93;3.60;;;;;;;27.20;100.00;100309.06;4961555;28;20213;-77
2022/09/06 11:14:26;;;;;;;4.00;3.17;;;;;;;27.25;100.00;100308.69;4970467;28;20566;-76
2022/09/06 11:17:04;;;;;;;4.13;3.60;;;;;;;27.35;100.00;100306.16;4968799;28;20210;-74
2022/09/06 11:20:07;;;;;;;4.10;3.60;;;;;;;27.46;100.00;100300.00;4972559;28;20193;-75
2022/09/06 11:22:38;;;;;;;3.67;3.23;;;;;;;27.47;100.00;100297.22;4926531;29;20751;-75
2022/09/06 11:25:10;;;;;;;6.23;3.03;;;;;;;27.44;100.00;100296.63;4959450;28;20198;-75